createdAt,value
2023-01-03T00:03:26.119Z,-1.1
2023-01-03T00:13:43.609Z,-1.1
2023-01-03T00:18:34.916Z,-1.1
2023-01-03T00:23:41.845Z,-1.1
2023-01-03T00:34:11.600Z,-1
2023-01-03T00:39:38.608Z,-1.1
2023-01-03T00:45:01.767Z,-1.1
2023-01-03T00:50:26.264Z,-1.1
2023-01-03T00:55:48.147Z,-1.1
2023-01-03T01:01:10.821Z,-1.2
2023-01-03T01:06:38.712Z,-1.3
2023-01-03T01:12:01.579Z,-1.4
2023-01-03T01:17:24.811Z,-1.5
2023-01-03T01:22:47.249Z,-1.6
2023-01-03T01:28:00.589Z,-1.7
2023-01-03T01:33:23.684Z,-1.8
2023-01-03T01:38:46.199Z,-1.9
2023-01-03T01:44:15.020Z,-2
2023-01-03T01:49:38.703Z,-2.1
2023-01-03T01:55:01.189Z,-2.2
2023-01-03T02:00:08.121Z,-2.3
2023-01-03T02:05:33.088Z,-2.4
2023-01-03T02:10:39.288Z,-2.5
2023-01-03T02:15:46.486Z,-2.6
2023-01-03T02:26:05.884Z,-2.7
2023-01-03T02:31:28.850Z,-2.8
2023-01-03T02:36:51.789Z,-2.8
2023-01-03T02:42:01.359Z,-2.9
2023-01-03T02:47:23.708Z,-2.9
2023-01-03T02:52:46.929Z,-2.9
2023-01-03T02:58:09.292Z,-3
2023-01-03T03:03:33.051Z,-3.1
2023-01-03T03:08:40.854Z,-3.1
2023-01-03T03:14:03.467Z,-3.2
2023-01-03T03:19:11.242Z,-3.3
2023-01-03T03:24:24.029Z,-3.3
2023-01-03T03:29:15.448Z,-3.3
2023-01-03T03:34:22.810Z,-3.4
2023-01-03T03:39:45.601Z,-3.4
2023-01-03T03:45:08.257Z,-3.5
2023-01-03T03:50:21.244Z,-3.5
2023-01-03T03:55:44.074Z,-3.6
2023-01-03T04:01:05.509Z,-3.5
2023-01-03T04:06:29.255Z,-3.6
2023-01-03T04:11:52.516Z,-3.6
2023-01-03T04:17:15.730Z,-3.6
2023-01-03T04:22:26.224Z,-3.7
2023-01-03T04:27:33.498Z,-3.7
2023-01-03T04:32:58.591Z,-3.7
2023-01-03T04:38:21.472Z,-3.6
2023-01-03T04:43:44.291Z,-3.6
2023-01-03T04:49:12.935Z,-3.5
2023-01-03T04:54:34.247Z,-3.5
2023-01-03T04:59:57.462Z,-3.5
2023-01-03T05:05:27.954Z,-3.5
2023-01-03T05:10:49.985Z,-3.5
2023-01-03T05:15:59.983Z,-3.5
2023-01-03T05:21:29.000Z,-3.5
2023-01-03T05:26:35.650Z,-3.4
2023-01-03T05:32:02.028Z,-3.4
2023-01-03T05:37:25.074Z,-3.4
2023-01-03T05:42:32.593Z,-3.4
2023-01-03T05:47:40.404Z,-3.4
2023-01-03T05:52:47.488Z,-3.4
2023-01-03T05:57:53.778Z,-3.4
2023-01-03T06:03:02.053Z,-3.3
2023-01-03T06:08:10.270Z,-3.3
2023-01-03T06:13:17.737Z,-3.2
2023-01-03T06:18:45.718Z,-3.1
2023-01-03T06:23:40.335Z,-2.9
2023-01-03T06:28:15.981Z,-2.9
2023-01-03T06:33:22.929Z,-2.8
2023-01-03T06:40:45.521Z,-2.6
2023-01-03T06:45:38.528Z,-2.5
2023-01-03T06:50:30.903Z,-2.4
2023-01-03T06:55:36.640Z,-2.4
2023-01-03T07:00:39.654Z,-2.3
2023-01-03T07:05:33.693Z,-2.1
2023-01-03T07:10:29.293Z,-2
2023-01-03T07:15:19.712Z,-1.9
2023-01-03T07:20:12.277Z,-1.7
2023-01-03T07:25:03.946Z,-1.4
2023-01-03T07:30:13.861Z,-1.3
2023-01-03T07:40:13.770Z,-0.5
2023-01-03T07:45:04.949Z,0.1
2023-01-03T07:49:57.051Z,0.6
2023-01-03T07:55:04.874Z,1.3
2023-01-03T08:00:14.388Z,1.8
2023-01-03T08:05:39.221Z,2.4
2023-01-03T08:11:09.590Z,3.3
2023-01-03T08:16:16.675Z,4.1
2023-01-03T08:21:44.023Z,5.2
2023-01-03T08:26:51.802Z,6.4
2023-01-03T08:32:05.851Z,7.6
2023-01-03T08:37:37.337Z,9.1
2023-01-03T08:42:47.177Z,10.3
2023-01-03T08:47:38.537Z,11.4
2023-01-03T08:52:52.348Z,12.4
2023-01-03T08:58:15.458Z,13.9
2023-01-03T09:03:40.386Z,15.8
2023-01-03T09:09:03.610Z,17.2
2023-01-03T09:14:16.389Z,19
2023-01-03T09:19:43.262Z,21.2
2023-01-03T09:25:06.147Z,23.9
2023-01-03T09:30:36.419Z,27.3
2023-01-03T09:35:59.053Z,30.8
2023-01-03T09:41:23.121Z,39.6
2023-01-03T09:46:36.570Z,40.1
2023-01-03T09:52:58.543Z,33.6
2023-01-03T09:58:24.375Z,35.4
2023-01-03T10:03:51.735Z,36.5
2023-01-03T10:09:14.753Z,37.5
2023-01-03T10:14:48.974Z,38.8
2023-01-03T10:19:42.118Z,39.8
2023-01-03T10:25:06.725Z,40.9
2023-01-03T10:30:17.717Z,42
2023-01-03T10:35:51.361Z,43.1
2023-01-03T10:41:22.256Z,44.1
2023-01-03T10:46:52.500Z,44.8
2023-01-03T10:52:55.450Z,45.5
2023-01-03T10:58:18.889Z,45.5
2023-01-03T11:03:51.156Z,45.7
2023-01-03T11:09:13.994Z,46.1
2023-01-03T11:14:41.162Z,46.8
2023-01-03T11:20:11.230Z,46.9
2023-01-03T11:25:34.586Z,47.7
2023-01-03T11:30:46.916Z,47.9
2023-01-03T11:36:49.183Z,48.2
2023-01-03T11:42:03.471Z,48.1
2023-01-03T11:47:33.593Z,48.1
2023-01-03T11:52:56.456Z,48.3
2023-01-03T11:58:23.380Z,48.6
2023-01-03T12:03:32.081Z,48.6
2023-01-03T12:09:41.815Z,48.6
2023-01-03T12:15:11.982Z,48.6
2023-01-03T12:20:24.323Z,48.6
2023-01-03T12:25:46.240Z,48.6
2023-01-03T12:31:09.686Z,48.4
2023-01-03T12:36:37.256Z,48.1
2023-01-03T12:41:52.148Z,47.8
2023-01-03T12:47:25.044Z,47.6
2023-01-03T12:52:34.863Z,47.3
2023-01-03T12:57:57.763Z,46.8
2023-01-03T13:03:31.258Z,46.5
2023-01-03T13:08:40.928Z,46.1
2023-01-03T13:14:03.475Z,43.8
2023-01-03T13:19:32.260Z,43.8
2023-01-03T13:24:54.172Z,45.1
2023-01-03T13:30:18.853Z,46
2023-01-03T13:35:33.593Z,46.4
2023-01-03T13:41:35.799Z,48
2023-01-03T13:47:06.785Z,45.1
2023-01-03T13:52:31.257Z,41
2023-01-03T13:57:58.650Z,39.9
2023-01-03T14:03:27.624Z,39.2
2023-01-03T14:08:53.021Z,38.4
2023-01-03T14:14:15.745Z,37.3
2023-01-03T14:19:28.797Z,36
2023-01-03T14:26:04.036Z,34.2
2023-01-03T14:31:33.805Z,32.4
2023-01-03T14:37:02.233Z,30.5
2023-01-03T14:42:25.100Z,28.6
2023-01-03T14:47:54.502Z,26.5
2023-01-03T14:53:20.159Z,24.4
2023-01-03T14:58:48.259Z,22.5
2023-01-03T15:04:18.824Z,20.6
2023-01-03T15:09:49.652Z,18.9
2023-01-03T15:15:12.541Z,17.4
2023-01-03T15:20:40.980Z,16.3
2023-01-03T15:26:11.100Z,15.3
2023-01-03T15:31:40.949Z,14.4
2023-01-03T15:37:08.988Z,13.7
2023-01-03T15:43:15.735Z,13.1
2023-01-03T15:48:47.505Z,12.4
2023-01-03T15:54:01.139Z,11.9
2023-01-03T15:59:09.004Z,11.5
2023-01-03T16:04:35.865Z,11.3
2023-01-03T16:09:58.908Z,11
2023-01-03T16:15:21.675Z,10.9
2023-01-03T16:20:52.033Z,10.6
2023-01-03T16:27:00.180Z,10.4
2023-01-03T16:32:28.853Z,10.3
2023-01-03T16:37:57.892Z,10.1
2023-01-03T16:48:39.750Z,9.6
2023-01-03T16:54:09.316Z,9.4
2023-01-03T16:59:38.651Z,9.2
2023-01-03T17:04:54.861Z,9
2023-01-03T17:10:22.439Z,8.8
2023-01-03T17:15:49.656Z,8.5
2023-01-03T17:21:51.364Z,8.3
2023-01-03T17:27:14.474Z,8.1
2023-01-03T17:32:39.941Z,8.1
2023-01-03T17:38:43.721Z,8.2
2023-01-03T17:43:58.417Z,8.2
2023-01-03T17:49:21.249Z,8.1
2023-01-03T17:54:28.567Z,8.1
2023-01-03T17:59:29.459Z,7.9
2023-01-03T18:04:22.765Z,7.7
2023-01-03T18:10:20.557Z,7.5
2023-01-03T18:15:50.519Z,7.3
2023-01-03T18:21:13.128Z,7.1
2023-01-03T18:26:36.257Z,7
2023-01-03T18:31:44.252Z,6.9
2023-01-03T18:37:14.946Z,6.9
2023-01-03T18:42:42.598Z,6.8
2023-01-03T18:48:06.296Z,6.6
2023-01-03T18:53:35.057Z,6.6
2023-01-03T18:59:01.829Z,6.7
2023-01-03T19:03:56.359Z,6.8
2023-01-03T19:09:24.832Z,6.8
2023-01-03T19:14:47.850Z,6.8
2023-01-03T19:20:11.494Z,6.7
2023-01-03T19:25:35.544Z,6.7
2023-01-03T19:30:43.194Z,6.7
2023-01-03T19:35:50.903Z,6.7
2023-01-03T19:41:05.573Z,6.7
2023-01-03T19:46:13.193Z,6.7
2023-01-03T19:51:24.734Z,6.8
2023-01-03T19:56:32.184Z,6.9
2023-01-03T20:02:14.026Z,6.9
2023-01-03T20:07:48.477Z,6.9
2023-01-03T20:13:01.640Z,6.9
2023-01-03T20:18:16.469Z,6.8
2023-01-03T20:23:41.782Z,6.8
2023-01-03T20:29:12.766Z,6.6
2023-01-03T20:34:20.739Z,6.5
2023-01-03T20:40:06.701Z,6.4
2023-01-03T20:45:15.887Z,6.3
2023-01-03T20:50:45.680Z,6.3
2023-01-03T20:55:59.144Z,6.1
2023-01-03T21:01:23.246Z,6.2
2023-01-03T21:06:48.624Z,6.2
2023-01-03T21:12:18.284Z,6.1
2023-01-03T21:17:28.508Z,6.1
2023-01-03T21:22:25.997Z,6.1
2023-01-03T21:27:52.345Z,6.1
2023-01-03T21:33:22.033Z,6.1
2023-01-03T21:38:13.654Z,6.2
2023-01-03T21:43:06.009Z,6.2
2023-01-03T21:48:29.237Z,6.2
2023-01-03T21:54:01.473Z,6.1
2023-01-03T21:59:27.339Z,6.1
2023-01-03T22:04:36.752Z,6.1
2023-01-03T22:09:43.119Z,6
2023-01-03T22:15:09.431Z,5.9
2023-01-03T22:20:38.106Z,5.9
2023-01-03T22:26:01.301Z,5.8
2023-01-03T22:30:53.373Z,5.9
2023-01-03T22:36:16.546Z,5.9
2023-01-03T22:41:39.244Z,6
2023-01-03T22:46:52.604Z,6.1
2023-01-03T22:52:15.283Z,6.1
2023-01-03T22:57:37.583Z,6.1
2023-01-03T23:03:03.642Z,6.1
2023-01-03T23:08:11.183Z,6.3
2023-01-03T23:13:38.012Z,6.3
2023-01-03T23:18:29.738Z,6.4
2023-01-03T23:23:55.647Z,6.4
2023-01-03T23:29:02.807Z,6.4
2023-01-03T23:34:26.189Z,6.6
2023-01-03T23:39:17.843Z,6.6
2023-01-03T23:44:41.032Z,6.7
2023-01-03T23:50:06.804Z,6.8
2023-01-03T23:55:19.930Z,6.9
